Aviation Digital Data Service (ADDS)

Output produced by METARs form (2219 UTC 16 February 2019)
found at http://www.aviationweather.gov/metar/data/
 
METAR text: YPCC 162200Z AUTO 11007KT 9999 // SCT025 27/22 Q1013
Conditions at: YPCC (COCOS ISL INTL A, AU) observed 2200 UTC 16 February 2019
Temperature: 27.0°C (81°F)
Dewpoint: 22.0°C (72°F) [RH = 74%]
Pressure (altimeter): 29.91 inches Hg (1013.0 mb)
Winds: from the ESE (110 degrees) at 8 MPH (7 knots; 3.6 m/s)
Visibility: 6 or more miles (10+ km)
Ceiling: at least 12,000 feet AGL
Clouds: scattered clouds at 2500 feet AGL
Weather: no significant weather observed at this time

METAR text: YPCC 162130Z AUTO 11007KT 9999 // NCD 27/22 Q1013 RF00.0/000.0
Conditions at: YPCC (COCOS ISL INTL A, AU) observed 2130 UTC 16 February 2019
Temperature: 27.0°C (81°F)
Dewpoint: 22.0°C (72°F) [RH = 74%]
Pressure (altimeter): 29.91 inches Hg (1013.0 mb)
Winds: from the ESE (110 degrees) at 8 MPH (7 knots; 3.6 m/s)
Visibility: 6 or more miles (10+ km)
Ceiling: at least 12,000 feet AGL
Clouds: sky clear below 12,000 feet AGL
Weather: no significant weather observed at this time

METAR text: YPCC 162100Z AUTO 10007KT 9999 // SCT024 27/22 Q1013 RF00.0/000.0
Conditions at: YPCC (COCOS ISL INTL A, AU) observed 2100 UTC 16 February 2019
Temperature: 27.0°C (81°F)
Dewpoint: 22.0°C (72°F) [RH = 74%]
Pressure (altimeter): 29.91 inches Hg (1013.0 mb)
Winds: from the E (100 degrees) at 8 MPH (7 knots; 3.6 m/s)
Visibility: 6 or more miles (10+ km)
Ceiling: at least 12,000 feet AGL
Clouds: scattered clouds at 2400 feet AGL
Weather: no significant weather observed at this time

METAR text: YPCC 162030Z AUTO 12011KT 9999 // SCT024 27/22 Q1013 RF00.0/000.0
Conditions at: YPCC (COCOS ISL INTL A, AU) observed 2030 UTC 16 February 2019
Temperature: 27.0°C (81°F)
Dewpoint: 22.0°C (72°F) [RH = 74%]
Pressure (altimeter): 29.91 inches Hg (1013.0 mb)
Winds: from the ESE (120 degrees) at 13 MPH (11 knots; 5.7 m/s)
Visibility: 6 or more miles (10+ km)
Ceiling: at least 12,000 feet AGL
Clouds: scattered clouds at 2400 feet AGL
Weather: no significant weather observed at this time

METAR text: YPCC 162000Z AUTO 12009KT 9999 // SCT024 27/22 Q1013
Conditions at: YPCC (COCOS ISL INTL A, AU) observed 2000 UTC 16 February 2019
Temperature: 27.0°C (81°F)
Dewpoint: 22.0°C (72°F) [RH = 74%]
Pressure (altimeter): 29.91 inches Hg (1013.0 mb)
Winds: from the ESE (120 degrees) at 10 MPH (9 knots; 4.6 m/s)
Visibility: 6 or more miles (10+ km)
Ceiling: at least 12,000 feet AGL
Clouds: scattered clouds at 2400 feet AGL
Weather: no significant weather observed at this time

METAR text: YPCC 161930Z AUTO 11007KT 9999 // NCD 27/22 Q1013 RF00.0/000.0
Conditions at: YPCC (COCOS ISL INTL A, AU) observed 1930 UTC 16 February 2019
Temperature: 27.0°C (81°F)
Dewpoint: 22.0°C (72°F) [RH = 74%]
Pressure (altimeter): 29.91 inches Hg (1013.0 mb)
Winds: from the ESE (110 degrees) at 8 MPH (7 knots; 3.6 m/s)
Visibility: 6 or more miles (10+ km)
Ceiling: at least 12,000 feet AGL
Clouds: sky clear below 12,000 feet AGL
Weather: no significant weather observed at this time

METAR text: YPCC 161900Z AUTO 11010KT 9999 // SCT024 27/22 Q1014
Conditions at: YPCC (COCOS ISL INTL A, AU) observed 1900 UTC 16 February 2019
Temperature: 27.0°C (81°F)
Dewpoint: 22.0°C (72°F) [RH = 74%]
Pressure (altimeter): 29.94 inches Hg (1014.0 mb)
Winds: from the ESE (110 degrees) at 12 MPH (10 knots; 5.1 m/s)
Visibility: 6 or more miles (10+ km)
Ceiling: at least 12,000 feet AGL
Clouds: scattered clouds at 2400 feet AGL
Weather: no significant weather observed at this time

METAR text: YPCC 161830Z AUTO 12012KT 9999 // SCT024 27/22 Q1014 RF00.0/000.0
Conditions at: YPCC (COCOS ISL INTL A, AU) observed 1830 UTC 16 February 2019
Temperature: 27.0°C (81°F)
Dewpoint: 22.0°C (72°F) [RH = 74%]
Pressure (altimeter): 29.94 inches Hg (1014.0 mb)
Winds: from the ESE (120 degrees) at 14 MPH (12 knots; 6.2 m/s)
Visibility: 6 or more miles (10+ km)
Ceiling: at least 12,000 feet AGL
Clouds: scattered clouds at 2400 feet AGL
Weather: no significant weather observed at this time

METAR text: YPCC 161800Z AUTO 11009KT 9999 // NCD 27/21 Q1014 RF00.0/000.0
Conditions at: YPCC (COCOS ISL INTL A, AU) observed 1800 UTC 16 February 2019
Temperature: 27.0°C (81°F)
Dewpoint: 21.0°C (70°F) [RH = 70%]
Pressure (altimeter): 29.94 inches Hg (1014.0 mb)
Winds: from the ESE (110 degrees) at 10 MPH (9 knots; 4.6 m/s)
Visibility: 6 or more miles (10+ km)
Ceiling: at least 12,000 feet AGL
Clouds: sky clear below 12,000 feet AGL
Weather: no significant weather observed at this time

METAR text: YPCC 161730Z AUTO 11009KT 9999 // SCT024 27/22 Q1014 RF00.0/000.0
Conditions at: YPCC (COCOS ISL INTL A, AU) observed 1730 UTC 16 February 2019
Temperature: 27.0°C (81°F)
Dewpoint: 22.0°C (72°F) [RH = 74%]
Pressure (altimeter): 29.94 inches Hg (1014.0 mb)
Winds: from the ESE (110 degrees) at 10 MPH (9 knots; 4.6 m/s)
Visibility: 6 or more miles (10+ km)
Ceiling: at least 12,000 feet AGL
Clouds: scattered clouds at 2400 feet AGL
Weather: no significant weather observed at this time

METAR text: YPCC 161700Z AUTO 12009KT 9999 // SCT024 27/22 Q1015 RF00.0/000.0
Conditions at: YPCC (COCOS ISL INTL A, AU) observed 1700 UTC 16 February 2019
Temperature: 27.0°C (81°F)
Dewpoint: 22.0°C (72°F) [RH = 74%]
Pressure (altimeter): 29.97 inches Hg (1015.0 mb)
Winds: from the ESE (120 degrees) at 10 MPH (9 knots; 4.6 m/s)
Visibility: 6 or more miles (10+ km)
Ceiling: at least 12,000 feet AGL
Clouds: scattered clouds at 2400 feet AGL
Weather: no significant weather observed at this time

METAR text: YPCC 161630Z AUTO 12012KT 9999 // SCT024 27/23 Q1015 RF00.0/000.0
Conditions at: YPCC (COCOS ISL INTL A, AU) observed 1630 UTC 16 February 2019
Temperature: 27.0°C (81°F)
Dewpoint: 23.0°C (73°F) [RH = 79%]
Pressure (altimeter): 29.97 inches Hg (1015.0 mb)
Winds: from the ESE (120 degrees) at 14 MPH (12 knots; 6.2 m/s)
Visibility: 6 or more miles (10+ km)
Ceiling: at least 12,000 feet AGL
Clouds: scattered clouds at 2400 feet AGL
Weather: no significant weather observed at this time

METAR text: YPCC 161600Z AUTO 12010KT 9999 // SCT024 27/23 Q1015 RF00.0/000.0
Conditions at: YPCC (COCOS ISL INTL A, AU) observed 1600 UTC 16 February 2019
Temperature: 27.0°C (81°F)
Dewpoint: 23.0°C (73°F) [RH = 79%]
Pressure (altimeter): 29.97 inches Hg (1015.0 mb)
Winds: from the ESE (120 degrees) at 12 MPH (10 knots; 5.1 m/s)
Visibility: 6 or more miles (10+ km)
Ceiling: at least 12,000 feet AGL
Clouds: scattered clouds at 2400 feet AGL
Weather: no significant weather observed at this time

METAR text: YPCC 161530Z AUTO 13013KT 9999 // SCT024 27/22 Q1015 RF00.0/000.0
Conditions at: YPCC (COCOS ISL INTL A, AU) observed 1530 UTC 16 February 2019
Temperature: 27.0°C (81°F)
Dewpoint: 22.0°C (72°F) [RH = 74%]
Pressure (altimeter): 29.97 inches Hg (1015.0 mb)
Winds: from the SE (130 degrees) at 15 MPH (13 knots; 6.7 m/s)
Visibility: 6 or more miles (10+ km)
Ceiling: at least 12,000 feet AGL
Clouds: scattered clouds at 2400 feet AGL
Weather: no significant weather observed at this time

METAR text: YPCC 161500Z AUTO 13013KT 9999 // SCT022 27/23 Q1015 RF00.0/000.0
Conditions at: YPCC (COCOS ISL INTL A, AU) observed 1500 UTC 16 February 2019
Temperature: 27.0°C (81°F)
Dewpoint: 23.0°C (73°F) [RH = 79%]
Pressure (altimeter): 29.97 inches Hg (1015.0 mb)
Winds: from the SE (130 degrees) at 15 MPH (13 knots; 6.7 m/s)
Visibility: 6 or more miles (10+ km)
Ceiling: at least 12,000 feet AGL
Clouds: scattered clouds at 2200 feet AGL
Weather: no significant weather observed at this time

METAR text: YPCC 161430Z AUTO 12011KT 9999 // SCT022 27/23 Q1014 RF00.0/000.0
Conditions at: YPCC (COCOS ISL INTL A, AU) observed 1430 UTC 16 February 2019
Temperature: 27.0°C (81°F)
Dewpoint: 23.0°C (73°F) [RH = 79%]
Pressure (altimeter): 29.94 inches Hg (1014.0 mb)
Winds: from the ESE (120 degrees) at 13 MPH (11 knots; 5.7 m/s)
Visibility: 6 or more miles (10+ km)
Ceiling: at least 12,000 feet AGL
Clouds: scattered clouds at 2200 feet AGL
Weather: no significant weather observed at this time

METAR text: YPCC 161400Z AUTO 12011KT 9999 // SCT022 28/22 Q1014 RF00.0/000.0
Conditions at: YPCC (COCOS ISL INTL A, AU) observed 1400 UTC 16 February 2019
Temperature: 28.0°C (82°F)
Dewpoint: 22.0°C (72°F) [RH = 70%]
Pressure (altimeter): 29.94 inches Hg (1014.0 mb)
Winds: from the ESE (120 degrees) at 13 MPH (11 knots; 5.7 m/s)
Visibility: 6 or more miles (10+ km)
Ceiling: at least 12,000 feet AGL
Clouds: scattered clouds at 2200 feet AGL
Weather: no significant weather observed at this time

METAR text: YPCC 161330Z AUTO 13014KT 9999 // NCD 28/23 Q1014 RF00.0/000.0
Conditions at: YPCC (COCOS ISL INTL A, AU) observed 1330 UTC 16 February 2019
Temperature: 28.0°C (82°F)
Dewpoint: 23.0°C (73°F) [RH = 74%]
Pressure (altimeter): 29.94 inches Hg (1014.0 mb)
Winds: from the SE (130 degrees) at 16 MPH (14 knots; 7.2 m/s)
Visibility: 6 or more miles (10+ km)
Ceiling: at least 12,000 feet AGL
Clouds: sky clear below 12,000 feet AGL
Weather: no significant weather observed at this time

METAR text: YPCC 161300Z AUTO 13014KT 9999 // NCD 28/23 Q1013 RF00.0/000.0
Conditions at: YPCC (COCOS ISL INTL A, AU) observed 1300 UTC 16 February 2019
Temperature: 28.0°C (82°F)
Dewpoint: 23.0°C (73°F) [RH = 74%]
Pressure (altimeter): 29.91 inches Hg (1013.0 mb)
Winds: from the SE (130 degrees) at 16 MPH (14 knots; 7.2 m/s)
Visibility: 6 or more miles (10+ km)
Ceiling: at least 12,000 feet AGL
Clouds: sky clear below 12,000 feet AGL
Weather: no significant weather observed at this time

METAR text: YPCC 161230Z AUTO 12012KT 9999 // NCD 28/23 Q1013 RF00.0/000.0
Conditions at: YPCC (COCOS ISL INTL A, AU) observed 1230 UTC 16 February 2019
Temperature: 28.0°C (82°F)
Dewpoint: 23.0°C (73°F) [RH = 74%]
Pressure (altimeter): 29.91 inches Hg (1013.0 mb)
Winds: from the ESE (120 degrees) at 14 MPH (12 knots; 6.2 m/s)
Visibility: 6 or more miles (10+ km)
Ceiling: at least 12,000 feet AGL
Clouds: sky clear below 12,000 feet AGL
Weather: no significant weather observed at this time

METAR text: YPCC 161200Z AUTO 12013KT 9999 // NCD 28/23 Q1013
Conditions at: YPCC (COCOS ISL INTL A, AU) observed 1200 UTC 16 February 2019
Temperature: 28.0°C (82°F)
Dewpoint: 23.0°C (73°F) [RH = 74%]
Pressure (altimeter): 29.91 inches Hg (1013.0 mb)
Winds: from the ESE (120 degrees) at 15 MPH (13 knots; 6.7 m/s)
Visibility: 6 or more miles (10+ km)
Ceiling: at least 12,000 feet AGL
Clouds: sky clear below 12,000 feet AGL
Weather: no significant weather observed at this time

METAR text: YPCC 161130Z AUTO 14013KT 9999 // NCD 29/22 Q1013 RF00.0/000.0
Conditions at: YPCC (COCOS ISL INTL A, AU) observed 1130 UTC 16 February 2019
Temperature: 29.0°C (84°F)
Dewpoint: 22.0°C (72°F) [RH = 66%]
Pressure (altimeter): 29.91 inches Hg (1013.0 mb)
Winds: from the SE (140 degrees) at 15 MPH (13 knots; 6.7 m/s)
Visibility: 6 or more miles (10+ km)
Ceiling: at least 12,000 feet AGL
Clouds: sky clear below 12,000 feet AGL
Weather: no significant weather observed at this time

METAR text: YPCC 161100Z AUTO 12012KT 9999 // SCT022 29/23 Q1012 RF00.0/000.0
Conditions at: YPCC (COCOS ISL INTL A, AU) observed 1100 UTC 16 February 2019
Temperature: 29.0°C (84°F)
Dewpoint: 23.0°C (73°F) [RH = 70%]
Pressure (altimeter): 29.88 inches Hg (1012.0 mb)
Winds: from the ESE (120 degrees) at 14 MPH (12 knots; 6.2 m/s)
Visibility: 6 or more miles (10+ km)
Ceiling: at least 12,000 feet AGL
Clouds: scattered clouds at 2200 feet AGL
Weather: no significant weather observed at this time

METAR text: YPCC 161030Z AUTO 12013KT 9999 // SCT024 29/23 Q1012 RF00.0/000.0
Conditions at: YPCC (COCOS ISL INTL A, AU) observed 1030 UTC 16 February 2019
Temperature: 29.0°C (84°F)
Dewpoint: 23.0°C (73°F) [RH = 70%]
Pressure (altimeter): 29.88 inches Hg (1012.0 mb)
Winds: from the ESE (120 degrees) at 15 MPH (13 knots; 6.7 m/s)
Visibility: 6 or more miles (10+ km)
Ceiling: at least 12,000 feet AGL
Clouds: scattered clouds at 2400 feet AGL
Weather: no significant weather observed at this time

METAR text: YPCC 161022Z AUTO 13015KT 9999 // SCT024 29/23 Q1012 RF00/0/000/0
Conditions at: YPCC (COCOS ISL INTL A, AU) observed 1022 UTC 16 February 2019
Temperature: 29.0°C (84°F)
Dewpoint: 23.0°C (73°F) [RH = 70%]
Pressure (altimeter): 29.88 inches Hg (1012.0 mb)
Winds: from the SE (130 degrees) at 17 MPH (15 knots; 7.7 m/s)
Visibility: 6 or more miles (10+ km)
Ceiling: at least 12,000 feet AGL
Clouds: scattered clouds at 2400 feet AGL
Weather: no significant weather observed at this time

METAR text: YPCC 161010Z AUTO 12014KT 6000 // SCT024 SCT036 29/23 Q1012
Conditions at: YPCC (COCOS ISL INTL A, AU) observed 1010 UTC 16 February 2019
Temperature: 29.0°C (84°F)
Dewpoint: 23.0°C (73°F) [RH = 70%]
Pressure (altimeter): 29.88 inches Hg (1012.0 mb)
Winds: from the ESE (120 degrees) at 16 MPH (14 knots; 7.2 m/s)
Visibility: 4 miles ( 6 km)
Ceiling: at least 12,000 feet AGL
Clouds: scattered clouds at 2400 feet AGL
scattered clouds at 3600 feet AGL
Weather: no significant weather observed at this time

METAR text: YPCC 161000Z AUTO 12014KT 9999 // SCT025 SCT033 SCT039 29/23 Q1012
Conditions at: YPCC (COCOS ISL INTL A, AU) observed 1000 UTC 16 February 2019
Temperature: 29.0°C (84°F)
Dewpoint: 23.0°C (73°F) [RH = 70%]
Pressure (altimeter): 29.88 inches Hg (1012.0 mb)
Winds: from the ESE (120 degrees) at 16 MPH (14 knots; 7.2 m/s)
Visibility: 6 or more miles (10+ km)
Ceiling: at least 12,000 feet AGL
Clouds: scattered clouds at 2500 feet AGL
scattered clouds at 3300 feet AGL
scattered clouds at 3900 feet AGL
Weather: no significant weather observed at this time

METAR text: YPCC 160930Z AUTO 13014KT 9999 // SCT023 SCT029 SCT037 29/23 Q1012
Conditions at: YPCC (COCOS ISL INTL A, AU) observed 0930 UTC 16 February 2019
Temperature: 29.0°C (84°F)
Dewpoint: 23.0°C (73°F) [RH = 70%]
Pressure (altimeter): 29.88 inches Hg (1012.0 mb)
Winds: from the SE (130 degrees) at 16 MPH (14 knots; 7.2 m/s)
Visibility: 6 or more miles (10+ km)
Ceiling: at least 12,000 feet AGL
Clouds: scattered clouds at 2300 feet AGL
scattered clouds at 2900 feet AGL
scattered clouds at 3700 feet AGL
Weather: no significant weather observed at this time

METAR text: YPCC 160900Z AUTO 13014KT 9999 // SCT025 30/23 Q1012
Conditions at: YPCC (COCOS ISL INTL A, AU) observed 0900 UTC 16 February 2019
Temperature: 30.0°C (86°F)
Dewpoint: 23.0°C (73°F) [RH = 66%]
Pressure (altimeter): 29.88 inches Hg (1012.0 mb)
Winds: from the SE (130 degrees) at 16 MPH (14 knots; 7.2 m/s)
Visibility: 6 or more miles (10+ km)
Ceiling: at least 12,000 feet AGL
Clouds: scattered clouds at 2500 feet AGL
Weather: no significant weather observed at this time

METAR text: YPCC 160830Z AUTO 13013KT 9999 // SCT024 30/23 Q1013 RF00.0/000.0
Conditions at: YPCC (COCOS ISL INTL A, AU) observed 0830 UTC 16 February 2019
Temperature: 30.0°C (86°F)
Dewpoint: 23.0°C (73°F) [RH = 66%]
Pressure (altimeter): 29.91 inches Hg (1013.0 mb)
Winds: from the SE (130 degrees) at 15 MPH (13 knots; 6.7 m/s)
Visibility: 6 or more miles (10+ km)
Ceiling: at least 12,000 feet AGL
Clouds: scattered clouds at 2400 feet AGL
Weather: no significant weather observed at this time

METAR text: YPCC 160800Z AUTO 13013KT 9999 // SCT024 SCT027 BKN032 30/23 Q1013
Conditions at: YPCC (COCOS ISL INTL A, AU) observed 0800 UTC 16 February 2019
Temperature: 30.0°C (86°F)
Dewpoint: 23.0°C (73°F) [RH = 66%]
Pressure (altimeter): 29.91 inches Hg (1013.0 mb)
Winds: from the SE (130 degrees) at 15 MPH (13 knots; 6.7 m/s)
Visibility: 6 or more miles (10+ km)
Ceiling: 3200 feet AGL
Clouds: scattered clouds at 2400 feet AGL
scattered clouds at 2700 feet AGL
broken clouds at 3200 feet AGL
Weather: no significant weather observed at this time

METAR text: YPCC 160730Z AUTO 13013KT 9999 // SCT024 30/23 Q1013 RF00.0/000.0
Conditions at: YPCC (COCOS ISL INTL A, AU) observed 0730 UTC 16 February 2019
Temperature: 30.0°C (86°F)
Dewpoint: 23.0°C (73°F) [RH = 66%]
Pressure (altimeter): 29.91 inches Hg (1013.0 mb)
Winds: from the SE (130 degrees) at 15 MPH (13 knots; 6.7 m/s)
Visibility: 6 or more miles (10+ km)
Ceiling: at least 12,000 feet AGL
Clouds: scattered clouds at 2400 feet AGL
Weather: no significant weather observed at this time

METAR text: YPCC 160700Z AUTO 13013KT 9999 // NCD 30/23 Q1013
Conditions at: YPCC (COCOS ISL INTL A, AU) observed 0700 UTC 16 February 2019
Temperature: 30.0°C (86°F)
Dewpoint: 23.0°C (73°F) [RH = 66%]
Pressure (altimeter): 29.91 inches Hg (1013.0 mb)
Winds: from the SE (130 degrees) at 15 MPH (13 knots; 6.7 m/s)
Visibility: 6 or more miles (10+ km)
Ceiling: at least 12,000 feet AGL
Clouds: sky clear below 12,000 feet AGL
Weather: no significant weather observed at this time

METAR text: YPCC 160630Z AUTO 13013KT 9999 // SCT024 SCT029 30/23 Q1014
Conditions at: YPCC (COCOS ISL INTL A, AU) observed 0630 UTC 16 February 2019
Temperature: 30.0°C (86°F)
Dewpoint: 23.0°C (73°F) [RH = 66%]
Pressure (altimeter): 29.94 inches Hg (1014.0 mb)
Winds: from the SE (130 degrees) at 15 MPH (13 knots; 6.7 m/s)
Visibility: 6 or more miles (10+ km)
Ceiling: at least 12,000 feet AGL
Clouds: scattered clouds at 2400 feet AGL
scattered clouds at 2900 feet AGL
Weather: no significant weather observed at this time

METAR text: YPCC 160600Z AUTO 13013KT 9999 // ////// 30/23 Q1014 RF00.0/000.0
Conditions at: YPCC (COCOS ISL INTL A, AU) observed 0600 UTC 16 February 2019
Temperature: 30.0°C (86°F)
Dewpoint: 23.0°C (73°F) [RH = 66%]
Pressure (altimeter): 29.94 inches Hg (1014.0 mb)
Winds: from the SE (130 degrees) at 15 MPH (13 knots; 6.7 m/s)
Visibility: 6 or more miles (10+ km)
Ceiling: unknown
Clouds: missing
Weather: no significant weather observed at this time

METAR text: YPCC 160530Z AUTO 13012KT 9999 // SCT022 SCT027 SCT035 30/23 Q1015
Conditions at: YPCC (COCOS ISL INTL A, AU) observed 0530 UTC 16 February 2019
Temperature: 30.0°C (86°F)
Dewpoint: 23.0°C (73°F) [RH = 66%]
Pressure (altimeter): 29.97 inches Hg (1015.0 mb)
Winds: from the SE (130 degrees) at 14 MPH (12 knots; 6.2 m/s)
Visibility: 6 or more miles (10+ km)
Ceiling: at least 12,000 feet AGL
Clouds: scattered clouds at 2200 feet AGL
scattered clouds at 2700 feet AGL
scattered clouds at 3500 feet AGL
Weather: no significant weather observed at this time

METAR text: YPCC 160500Z AUTO 12011KT 9999 // SCT024 SCT029 BKN036 29/23 Q1015
Conditions at: YPCC (COCOS ISL INTL A, AU) observed 0500 UTC 16 February 2019
Temperature: 29.0°C (84°F)
Dewpoint: 23.0°C (73°F) [RH = 70%]
Pressure (altimeter): 29.97 inches Hg (1015.0 mb)
Winds: from the ESE (120 degrees) at 13 MPH (11 knots; 5.7 m/s)
Visibility: 6 or more miles (10+ km)
Ceiling: 3600 feet AGL
Clouds: scattered clouds at 2400 feet AGL
scattered clouds at 2900 feet AGL
broken clouds at 3600 feet AGL
Weather: no significant weather observed at this time

METAR text: YPCC 160430Z AUTO 12012KT 9999 // SCT022 30/23 Q1015 RF00.0/000.0
Conditions at: YPCC (COCOS ISL INTL A, AU) observed 0430 UTC 16 February 2019
Temperature: 30.0°C (86°F)
Dewpoint: 23.0°C (73°F) [RH = 66%]
Pressure (altimeter): 29.97 inches Hg (1015.0 mb)
Winds: from the ESE (120 degrees) at 14 MPH (12 knots; 6.2 m/s)
Visibility: 6 or more miles (10+ km)
Ceiling: at least 12,000 feet AGL
Clouds: scattered clouds at 2200 feet AGL
Weather: no significant weather observed at this time

METAR text: YPCC 160400Z AUTO 12012KT 9999 // SCT022 29/23 Q1015 RF00.0/000.0
Conditions at: YPCC (COCOS ISL INTL A, AU) observed 0400 UTC 16 February 2019
Temperature: 29.0°C (84°F)
Dewpoint: 23.0°C (73°F) [RH = 70%]
Pressure (altimeter): 29.97 inches Hg (1015.0 mb)
Winds: from the ESE (120 degrees) at 14 MPH (12 knots; 6.2 m/s)
Visibility: 6 or more miles (10+ km)
Ceiling: at least 12,000 feet AGL
Clouds: scattered clouds at 2200 feet AGL
Weather: no significant weather observed at this time

METAR text: YPCC 160330Z AUTO 11009KT 9999 // SCT023 30/23 Q1015 RF00.0/000.0
Conditions at: YPCC (COCOS ISL INTL A, AU) observed 0330 UTC 16 February 2019
Temperature: 30.0°C (86°F)
Dewpoint: 23.0°C (73°F) [RH = 66%]
Pressure (altimeter): 29.97 inches Hg (1015.0 mb)
Winds: from the ESE (110 degrees) at 10 MPH (9 knots; 4.6 m/s)
Visibility: 6 or more miles (10+ km)
Ceiling: at least 12,000 feet AGL
Clouds: scattered clouds at 2300 feet AGL
Weather: no significant weather observed at this time

METAR text: YPCC 160300Z AUTO 12011KT 9999 // SCT023 SCT029 29/23 Q1015
Conditions at: YPCC (COCOS ISL INTL A, AU) observed 0300 UTC 16 February 2019
Temperature: 29.0°C (84°F)
Dewpoint: 23.0°C (73°F) [RH = 70%]
Pressure (altimeter): 29.97 inches Hg (1015.0 mb)
Winds: from the ESE (120 degrees) at 13 MPH (11 knots; 5.7 m/s)
Visibility: 6 or more miles (10+ km)
Ceiling: at least 12,000 feet AGL
Clouds: scattered clouds at 2300 feet AGL
scattered clouds at 2900 feet AGL
Weather: no significant weather observed at this time

METAR text: YPCC 160230Z AUTO 11010KT 9999 // SCT023 29/23 Q1015 RF00.0/000.0
Conditions at: YPCC (COCOS ISL INTL A, AU) observed 0230 UTC 16 February 2019
Temperature: 29.0°C (84°F)
Dewpoint: 23.0°C (73°F) [RH = 70%]
Pressure (altimeter): 29.97 inches Hg (1015.0 mb)
Winds: from the ESE (110 degrees) at 12 MPH (10 knots; 5.1 m/s)
Visibility: 6 or more miles (10+ km)
Ceiling: at least 12,000 feet AGL
Clouds: scattered clouds at 2300 feet AGL
Weather: no significant weather observed at this time

METAR text: YPCC 160200Z AUTO 11009KT 9999 // SCT021 29/23 Q1015 RF00.0/000.0
Conditions at: YPCC (COCOS ISL INTL A, AU) observed 0200 UTC 16 February 2019
Temperature: 29.0°C (84°F)
Dewpoint: 23.0°C (73°F) [RH = 70%]
Pressure (altimeter): 29.97 inches Hg (1015.0 mb)
Winds: from the ESE (110 degrees) at 10 MPH (9 knots; 4.6 m/s)
Visibility: 6 or more miles (10+ km)
Ceiling: at least 12,000 feet AGL
Clouds: scattered clouds at 2100 feet AGL
Weather: no significant weather observed at this time

METAR text: YPCC 160130Z AUTO 12011KT 9999 // SCT021 29/23 Q1015 RF00.0/000.0
Conditions at: YPCC (COCOS ISL INTL A, AU) observed 0130 UTC 16 February 2019
Temperature: 29.0°C (84°F)
Dewpoint: 23.0°C (73°F) [RH = 70%]
Pressure (altimeter): 29.97 inches Hg (1015.0 mb)
Winds: from the ESE (120 degrees) at 13 MPH (11 knots; 5.7 m/s)
Visibility: 6 or more miles (10+ km)
Ceiling: at least 12,000 feet AGL
Clouds: scattered clouds at 2100 feet AGL
Weather: no significant weather observed at this time

METAR text: YPCC 160100Z AUTO 11009KT 9999 // SCT021 28/23 Q1015 RF00.0/000.0
Conditions at: YPCC (COCOS ISL INTL A, AU) observed 0100 UTC 16 February 2019
Temperature: 28.0°C (82°F)
Dewpoint: 23.0°C (73°F) [RH = 74%]
Pressure (altimeter): 29.97 inches Hg (1015.0 mb)
Winds: from the ESE (110 degrees) at 10 MPH (9 knots; 4.6 m/s)
Visibility: 6 or more miles (10+ km)
Ceiling: at least 12,000 feet AGL
Clouds: scattered clouds at 2100 feet AGL
Weather: no significant weather observed at this time

METAR text: YPCC 160030Z AUTO 11007KT 9999 // SCT021 28/23 Q1015 RF00.0/000.0
Conditions at: YPCC (COCOS ISL INTL A, AU) observed 0030 UTC 16 February 2019
Temperature: 28.0°C (82°F)
Dewpoint: 23.0°C (73°F) [RH = 74%]
Pressure (altimeter): 29.97 inches Hg (1015.0 mb)
Winds: from the ESE (110 degrees) at 8 MPH (7 knots; 3.6 m/s)
Visibility: 6 or more miles (10+ km)
Ceiling: at least 12,000 feet AGL
Clouds: scattered clouds at 2100 feet AGL
Weather: no significant weather observed at this time

METAR text: YPCC 160000Z AUTO 11008KT 9999 // SCT021 SCT030 27/23 Q1014
Conditions at: YPCC (COCOS ISL INTL A, AU) observed 0000 UTC 16 February 2019
Temperature: 27.0°C (81°F)
Dewpoint: 23.0°C (73°F) [RH = 79%]
Pressure (altimeter): 29.94 inches Hg (1014.0 mb)
Winds: from the ESE (110 degrees) at 9 MPH (8 knots; 4.1 m/s)
Visibility: 6 or more miles (10+ km)
Ceiling: at least 12,000 feet AGL
Clouds: scattered clouds at 2100 feet AGL
scattered clouds at 3000 feet AGL
Weather: no significant weather observed at this time

METAR text: YPCC 152330Z AUTO 11008KT 9999 // SCT021 27/23 Q1014 RF00.0/000.0
Conditions at: YPCC (COCOS ISL INTL A, AU) observed 2330 UTC 15 February 2019
Temperature: 27.0°C (81°F)
Dewpoint: 23.0°C (73°F) [RH = 79%]
Pressure (altimeter): 29.94 inches Hg (1014.0 mb)
Winds: from the ESE (110 degrees) at 9 MPH (8 knots; 4.1 m/s)
Visibility: 6 or more miles (10+ km)
Ceiling: at least 12,000 feet AGL
Clouds: scattered clouds at 2100 feet AGL
Weather: no significant weather observed at this time

METAR text: YPCC 152300Z AUTO 11009KT 9999 // NCD 27/23 Q1014 RF00.0/000.0
Conditions at: YPCC (COCOS ISL INTL A, AU) observed 2300 UTC 15 February 2019
Temperature: 27.0°C (81°F)
Dewpoint: 23.0°C (73°F) [RH = 79%]
Pressure (altimeter): 29.94 inches Hg (1014.0 mb)
Winds: from the ESE (110 degrees) at 10 MPH (9 knots; 4.6 m/s)
Visibility: 6 or more miles (10+ km)
Ceiling: at least 12,000 feet AGL
Clouds: sky clear below 12,000 feet AGL
Weather: no significant weather observed at this time

METAR text: YPCC 152230Z AUTO 11009KT 9999 // SCT021 27/23 Q1013 RF00.0/000.0
Conditions at: YPCC (COCOS ISL INTL A, AU) observed 2230 UTC 15 February 2019
Temperature: 27.0°C (81°F)
Dewpoint: 23.0°C (73°F) [RH = 79%]
Pressure (altimeter): 29.91 inches Hg (1013.0 mb)
Winds: from the ESE (110 degrees) at 10 MPH (9 knots; 4.6 m/s)
Visibility: 6 or more miles (10+ km)
Ceiling: at least 12,000 feet AGL
Clouds: scattered clouds at 2100 feet AGL
Weather: no significant weather observed at this time

METAR text: YPCC 152200Z AUTO 12010KT 9999 // SCT023 SCT028 SCT035 27/23 Q1013
Conditions at: YPCC (COCOS ISL INTL A, AU) observed 2200 UTC 15 February 2019
Temperature: 27.0°C (81°F)
Dewpoint: 23.0°C (73°F) [RH = 79%]
Pressure (altimeter): 29.91 inches Hg (1013.0 mb)
Winds: from the ESE (120 degrees) at 12 MPH (10 knots; 5.1 m/s)
Visibility: 6 or more miles (10+ km)
Ceiling: at least 12,000 feet AGL
Clouds: scattered clouds at 2300 feet AGL
scattered clouds at 2800 feet AGL
scattered clouds at 3500 feet AGL
Weather: no significant weather observed at this time

METAR text: YPCC 152130Z AUTO 12011KT 9999 // SCT021 27/23 Q1013 RF00.0/000.0
Conditions at: YPCC (COCOS ISL INTL A, AU) observed 2130 UTC 15 February 2019
Temperature: 27.0°C (81°F)
Dewpoint: 23.0°C (73°F) [RH = 79%]
Pressure (altimeter): 29.91 inches Hg (1013.0 mb)
Winds: from the ESE (120 degrees) at 13 MPH (11 knots; 5.7 m/s)
Visibility: 6 or more miles (10+ km)
Ceiling: at least 12,000 feet AGL
Clouds: scattered clouds at 2100 feet AGL
Weather: no significant weather observed at this time

METAR text: YPCC 152100Z AUTO 12012KT 9999 // SCT021 27/23 Q1013
Conditions at: YPCC (COCOS ISL INTL A, AU) observed 2100 UTC 15 February 2019
Temperature: 27.0°C (81°F)
Dewpoint: 23.0°C (73°F) [RH = 79%]
Pressure (altimeter): 29.91 inches Hg (1013.0 mb)
Winds: from the ESE (120 degrees) at 14 MPH (12 knots; 6.2 m/s)
Visibility: 6 or more miles (10+ km)
Ceiling: at least 12,000 feet AGL
Clouds: scattered clouds at 2100 feet AGL
Weather: no significant weather observed at this time

METAR text: YPCC 152030Z AUTO 11010KT 9999 // SCT021 27/23 Q1013 RF00.0/000.0
Conditions at: YPCC (COCOS ISL INTL A, AU) observed 2030 UTC 15 February 2019
Temperature: 27.0°C (81°F)
Dewpoint: 23.0°C (73°F) [RH = 79%]
Pressure (altimeter): 29.91 inches Hg (1013.0 mb)
Winds: from the ESE (110 degrees) at 12 MPH (10 knots; 5.1 m/s)
Visibility: 6 or more miles (10+ km)
Ceiling: at least 12,000 feet AGL
Clouds: scattered clouds at 2100 feet AGL
Weather: no significant weather observed at this time

METAR text: YPCC 152000Z AUTO 11008KT 9999 // SCT021 SCT044 27/23 Q1014
Conditions at: YPCC (COCOS ISL INTL A, AU) observed 2000 UTC 15 February 2019
Temperature: 27.0°C (81°F)
Dewpoint: 23.0°C (73°F) [RH = 79%]
Pressure (altimeter): 29.94 inches Hg (1014.0 mb)
Winds: from the ESE (110 degrees) at 9 MPH (8 knots; 4.1 m/s)
Visibility: 6 or more miles (10+ km)
Ceiling: at least 12,000 feet AGL
Clouds: scattered clouds at 2100 feet AGL
scattered clouds at 4400 feet AGL
Weather: no significant weather observed at this time

METAR text: YPCC 151930Z AUTO 11008KT 9999 // SCT022 27/23 Q1014 RF00.0/000.0
Conditions at: YPCC (COCOS ISL INTL A, AU) observed 1930 UTC 15 February 2019
Temperature: 27.0°C (81°F)
Dewpoint: 23.0°C (73°F) [RH = 79%]
Pressure (altimeter): 29.94 inches Hg (1014.0 mb)
Winds: from the ESE (110 degrees) at 9 MPH (8 knots; 4.1 m/s)
Visibility: 6 or more miles (10+ km)
Ceiling: at least 12,000 feet AGL
Clouds: scattered clouds at 2200 feet AGL
Weather: no significant weather observed at this time

METAR text: YPCC 151900Z AUTO 11008KT 9999 // SCT022 27/23 Q1014 RF00.0/000.0
Conditions at: YPCC (COCOS ISL INTL A, AU) observed 1900 UTC 15 February 2019
Temperature: 27.0°C (81°F)
Dewpoint: 23.0°C (73°F) [RH = 79%]
Pressure (altimeter): 29.94 inches Hg (1014.0 mb)
Winds: from the ESE (110 degrees) at 9 MPH (8 knots; 4.1 m/s)
Visibility: 6 or more miles (10+ km)
Ceiling: at least 12,000 feet AGL
Clouds: scattered clouds at 2200 feet AGL
Weather: no significant weather observed at this time

METAR text: YPCC 151830Z AUTO 11007KT 9999 // SCT022 27/23 Q1014 RF00.0/000.0
Conditions at: YPCC (COCOS ISL INTL A, AU) observed 1830 UTC 15 February 2019
Temperature: 27.0°C (81°F)
Dewpoint: 23.0°C (73°F) [RH = 79%]
Pressure (altimeter): 29.94 inches Hg (1014.0 mb)
Winds: from the ESE (110 degrees) at 8 MPH (7 knots; 3.6 m/s)
Visibility: 6 or more miles (10+ km)
Ceiling: at least 12,000 feet AGL
Clouds: scattered clouds at 2200 feet AGL
Weather: no significant weather observed at this time

METAR text: YPCC 151813Z AUTO 10007KT 9999 // SCT022 27/23 Q1015 RF00/0/000/0
Conditions at: YPCC (COCOS ISL INTL A, AU) observed 1813 UTC 15 February 2019
Temperature: 27.0°C (81°F)
Dewpoint: 23.0°C (73°F) [RH = 79%]
Pressure (altimeter): 29.97 inches Hg (1015.0 mb)
Winds: from the E (100 degrees) at 8 MPH (7 knots; 3.6 m/s)
Visibility: 6 or more miles (10+ km)
Ceiling: at least 12,000 feet AGL
Clouds: scattered clouds at 2200 feet AGL
Weather: no significant weather observed at this time

METAR text: YPCC 151800Z AUTO 10008KT 6000 // NCD 28/23 Q1015
Conditions at: YPCC (COCOS ISL INTL A, AU) observed 1800 UTC 15 February 2019
Temperature: 28.0°C (82°F)
Dewpoint: 23.0°C (73°F) [RH = 74%]
Pressure (altimeter): 29.97 inches Hg (1015.0 mb)
Winds: from the E (100 degrees) at 9 MPH (8 knots; 4.1 m/s)
Visibility: 4 miles ( 6 km)
Ceiling: at least 12,000 feet AGL
Clouds: sky clear below 12,000 feet AGL
Weather: no significant weather observed at this time

METAR text: YPCC 151757Z AUTO 10008KT 6000 // NCD 28/23 Q1015 RF00/0/000/0
Conditions at: YPCC (COCOS ISL INTL A, AU) observed 1757 UTC 15 February 2019
Temperature: 28.0°C (82°F)
Dewpoint: 23.0°C (73°F) [RH = 74%]
Pressure (altimeter): 29.97 inches Hg (1015.0 mb)
Winds: from the E (100 degrees) at 9 MPH (8 knots; 4.1 m/s)
Visibility: 4 miles ( 6 km)
Ceiling: at least 12,000 feet AGL
Clouds: sky clear below 12,000 feet AGL
Weather: no significant weather observed at this time

METAR text: YPCC 151750Z AUTO 10007KT 9999 // NCD 28/23 Q1015 RF00/0/000/0
Conditions at: YPCC (COCOS ISL INTL A, AU) observed 1750 UTC 15 February 2019
Temperature: 28.0°C (82°F)
Dewpoint: 23.0°C (73°F) [RH = 74%]
Pressure (altimeter): 29.97 inches Hg (1015.0 mb)
Winds: from the E (100 degrees) at 8 MPH (7 knots; 3.6 m/s)
Visibility: 6 or more miles (10+ km)
Ceiling: at least 12,000 feet AGL
Clouds: sky clear below 12,000 feet AGL
Weather: no significant weather observed at this time

METAR text: YPCC 151730Z AUTO 11007KT 7000 // NCD 28/23 Q1015 RF00.0/000.0
Conditions at: YPCC (COCOS ISL INTL A, AU) observed 1730 UTC 15 February 2019
Temperature: 28.0°C (82°F)
Dewpoint: 23.0°C (73°F) [RH = 74%]
Pressure (altimeter): 29.97 inches Hg (1015.0 mb)
Winds: from the ESE (110 degrees) at 8 MPH (7 knots; 3.6 m/s)
Visibility: 4 miles ( 7 km)
Ceiling: at least 12,000 feet AGL
Clouds: sky clear below 12,000 feet AGL
Weather: no significant weather observed at this time

METAR text: YPCC 151722Z AUTO 11008KT 4000 // NCD 28/23 Q1015 RF00/0/000/0
Conditions at: YPCC (COCOS ISL INTL A, AU) observed 1722 UTC 15 February 2019
Temperature: 28.0°C (82°F)
Dewpoint: 23.0°C (73°F) [RH = 74%]
Pressure (altimeter): 29.97 inches Hg (1015.0 mb)
Winds: from the ESE (110 degrees) at 9 MPH (8 knots; 4.1 m/s)
Visibility: 2.49 miles (4.01 km)
Ceiling: at least 12,000 feet AGL
Clouds: sky clear below 12,000 feet AGL
Weather: no significant weather observed at this time

METAR text: YPCC 151700Z AUTO 10007KT 9999 // NCD 28/23 Q1015 RF00.0/000.0
Conditions at: YPCC (COCOS ISL INTL A, AU) observed 1700 UTC 15 February 2019
Temperature: 28.0°C (82°F)
Dewpoint: 23.0°C (73°F) [RH = 74%]
Pressure (altimeter): 29.97 inches Hg (1015.0 mb)
Winds: from the E (100 degrees) at 8 MPH (7 knots; 3.6 m/s)
Visibility: 6 or more miles (10+ km)
Ceiling: at least 12,000 feet AGL
Clouds: sky clear below 12,000 feet AGL
Weather: no significant weather observed at this time

METAR text: YPCC 151630Z AUTO 11009KT 9999 // NCD 28/23 Q1015 RF00.0/000.0
Conditions at: YPCC (COCOS ISL INTL A, AU) observed 1630 UTC 15 February 2019
Temperature: 28.0°C (82°F)
Dewpoint: 23.0°C (73°F) [RH = 74%]
Pressure (altimeter): 29.97 inches Hg (1015.0 mb)
Winds: from the ESE (110 degrees) at 10 MPH (9 knots; 4.6 m/s)
Visibility: 6 or more miles (10+ km)
Ceiling: at least 12,000 feet AGL
Clouds: sky clear below 12,000 feet AGL
Weather: no significant weather observed at this time

METAR text: YPCC 151600Z AUTO 11009KT 9999 // NCD 28/23 Q1015 RF00.0/000.0
Conditions at: YPCC (COCOS ISL INTL A, AU) observed 1600 UTC 15 February 2019
Temperature: 28.0°C (82°F)
Dewpoint: 23.0°C (73°F) [RH = 74%]
Pressure (altimeter): 29.97 inches Hg (1015.0 mb)
Winds: from the ESE (110 degrees) at 10 MPH (9 knots; 4.6 m/s)
Visibility: 6 or more miles (10+ km)
Ceiling: at least 12,000 feet AGL
Clouds: sky clear below 12,000 feet AGL
Weather: no significant weather observed at this time

METAR text: YPCC 151540Z AUTO 11009KT 9999 // SCT022 SCT034 28/23 Q1015
Conditions at: YPCC (COCOS ISL INTL A, AU) observed 1540 UTC 15 February 2019
Temperature: 28.0°C (82°F)
Dewpoint: 23.0°C (73°F) [RH = 74%]
Pressure (altimeter): 29.97 inches Hg (1015.0 mb)
Winds: from the ESE (110 degrees) at 10 MPH (9 knots; 4.6 m/s)
Visibility: 6 or more miles (10+ km)
Ceiling: at least 12,000 feet AGL
Clouds: scattered clouds at 2200 feet AGL
scattered clouds at 3400 feet AGL
Weather: no significant weather observed at this time

METAR text: YPCC 151530Z AUTO 11009KT 5000 // SCT022 SCT032 28/23 Q1016
Conditions at: YPCC (COCOS ISL INTL A, AU) observed 1530 UTC 15 February 2019
Temperature: 28.0°C (82°F)
Dewpoint: 23.0°C (73°F) [RH = 74%]
Pressure (altimeter): 30.00 inches Hg (1016.0 mb)
Winds: from the ESE (110 degrees) at 10 MPH (9 knots; 4.6 m/s)
Visibility: 3 miles ( 5 km)
Ceiling: at least 12,000 feet AGL
Clouds: scattered clouds at 2200 feet AGL
scattered clouds at 3200 feet AGL
Weather: no significant weather observed at this time

METAR text: YPCC 151510Z AUTO 11008KT 5000 // SCT023 SCT028 28/23 Q1015
Conditions at: YPCC (COCOS ISL INTL A, AU) observed 1510 UTC 15 February 2019
Temperature: 28.0°C (82°F)
Dewpoint: 23.0°C (73°F) [RH = 74%]
Pressure (altimeter): 29.97 inches Hg (1015.0 mb)
Winds: from the ESE (110 degrees) at 9 MPH (8 knots; 4.1 m/s)
Visibility: 3 miles ( 5 km)
Ceiling: at least 12,000 feet AGL
Clouds: scattered clouds at 2300 feet AGL
scattered clouds at 2800 feet AGL
Weather: no significant weather observed at this time

METAR text: YPCC 151500Z AUTO 11007KT 9999 // SCT022 28/23 Q1015 RF00.0/000.0
Conditions at: YPCC (COCOS ISL INTL A, AU) observed 1500 UTC 15 February 2019
Temperature: 28.0°C (82°F)
Dewpoint: 23.0°C (73°F) [RH = 74%]
Pressure (altimeter): 29.97 inches Hg (1015.0 mb)
Winds: from the ESE (110 degrees) at 8 MPH (7 knots; 3.6 m/s)
Visibility: 6 or more miles (10+ km)
Ceiling: at least 12,000 feet AGL
Clouds: scattered clouds at 2200 feet AGL
Weather: no significant weather observed at this time

METAR text: YPCC 151437Z AUTO 11009KT 9999 // SCT022 28/24 Q1015 RF00/0/000/0
Conditions at: YPCC (COCOS ISL INTL A, AU) observed 1437 UTC 15 February 2019
Temperature: 28.0°C (82°F)
Dewpoint: 24.0°C (75°F) [RH = 79%]
Pressure (altimeter): 29.97 inches Hg (1015.0 mb)
Winds: from the ESE (110 degrees) at 10 MPH (9 knots; 4.6 m/s)
Visibility: 6 or more miles (10+ km)
Ceiling: at least 12,000 feet AGL
Clouds: scattered clouds at 2200 feet AGL
Weather: no significant weather observed at this time

METAR text: YPCC 151430Z AUTO 10008KT 8000 // NCD 28/24 Q1015 RF00/0/000/0
Conditions at: YPCC (COCOS ISL INTL A, AU) observed 1430 UTC 15 February 2019
Temperature: 28.0°C (82°F)
Dewpoint: 24.0°C (75°F) [RH = 79%]
Pressure (altimeter): 29.97 inches Hg (1015.0 mb)
Winds: from the E (100 degrees) at 9 MPH (8 knots; 4.1 m/s)
Visibility: 5 miles ( 8 km)
Ceiling: at least 12,000 feet AGL
Clouds: sky clear below 12,000 feet AGL
Weather: no significant weather observed at this time

METAR text: YPCC 151411Z AUTO 10008KT 0500 // SCT022 28/24 Q1015 RF00/0/000/0
Conditions at: YPCC (COCOS ISL INTL A, AU) observed 1411 UTC 15 February 2019
Temperature: 28.0°C (82°F)
Dewpoint: 24.0°C (75°F) [RH = 79%]
Pressure (altimeter): 29.97 inches Hg (1015.0 mb)
Winds: from the E (100 degrees) at 9 MPH (8 knots; 4.1 m/s)
Visibility: 0.31 miles (0.50 km)
Ceiling: at least 12,000 feet AGL
Clouds: scattered clouds at 2200 feet AGL
Weather: no significant weather observed at this time

METAR text: YPCC 151400Z AUTO 10010KT 9999 // SCT022 28/24 Q1015 RF00.0/000.0
Conditions at: YPCC (COCOS ISL INTL A, AU) observed 1400 UTC 15 February 2019
Temperature: 28.0°C (82°F)
Dewpoint: 24.0°C (75°F) [RH = 79%]
Pressure (altimeter): 29.97 inches Hg (1015.0 mb)
Winds: from the E (100 degrees) at 12 MPH (10 knots; 5.1 m/s)
Visibility: 6 or more miles (10+ km)
Ceiling: at least 12,000 feet AGL
Clouds: scattered clouds at 2200 feet AGL
Weather: no significant weather observed at this time

METAR text: YPCC 151330Z AUTO 10007KT 9999 // NCD 28/24 Q1015 RF00.0/000.0
Conditions at: YPCC (COCOS ISL INTL A, AU) observed 1330 UTC 15 February 2019
Temperature: 28.0°C (82°F)
Dewpoint: 24.0°C (75°F) [RH = 79%]
Pressure (altimeter): 29.97 inches Hg (1015.0 mb)
Winds: from the E (100 degrees) at 8 MPH (7 knots; 3.6 m/s)
Visibility: 6 or more miles (10+ km)
Ceiling: at least 12,000 feet AGL
Clouds: sky clear below 12,000 feet AGL
Weather: no significant weather observed at this time

METAR text: YPCC 151300Z AUTO 10009KT 9999 // SCT026 28/24 Q1014 RF00.0/000.0
Conditions at: YPCC (COCOS ISL INTL A, AU) observed 1300 UTC 15 February 2019
Temperature: 28.0°C (82°F)
Dewpoint: 24.0°C (75°F) [RH = 79%]
Pressure (altimeter): 29.94 inches Hg (1014.0 mb)
Winds: from the E (100 degrees) at 10 MPH (9 knots; 4.6 m/s)
Visibility: 6 or more miles (10+ km)
Ceiling: at least 12,000 feet AGL
Clouds: scattered clouds at 2600 feet AGL
Weather: no significant weather observed at this time

METAR text: YPCC 151230Z AUTO 10011KT 9999 // NCD 28/23 Q1014 RF00.0/000.0
Conditions at: YPCC (COCOS ISL INTL A, AU) observed 1230 UTC 15 February 2019
Temperature: 28.0°C (82°F)
Dewpoint: 23.0°C (73°F) [RH = 74%]
Pressure (altimeter): 29.94 inches Hg (1014.0 mb)
Winds: from the E (100 degrees) at 13 MPH (11 knots; 5.7 m/s)
Visibility: 6 or more miles (10+ km)
Ceiling: at least 12,000 feet AGL
Clouds: sky clear below 12,000 feet AGL
Weather: no significant weather observed at this time

METAR text: YPCC 151200Z AUTO 10009KT 9999 // NCD 28/23 Q1013
Conditions at: YPCC (COCOS ISL INTL A, AU) observed 1200 UTC 15 February 2019
Temperature: 28.0°C (82°F)
Dewpoint: 23.0°C (73°F) [RH = 74%]
Pressure (altimeter): 29.91 inches Hg (1013.0 mb)
Winds: from the E (100 degrees) at 10 MPH (9 knots; 4.6 m/s)
Visibility: 6 or more miles (10+ km)
Ceiling: at least 12,000 feet AGL
Clouds: sky clear below 12,000 feet AGL
Weather: no significant weather observed at this time

METAR text: YPCC 151130Z AUTO 10012KT 9999 // SCT024 SCT032 29/24 Q1013
Conditions at: YPCC (COCOS ISL INTL A, AU) observed 1130 UTC 15 February 2019
Temperature: 29.0°C (84°F)
Dewpoint: 24.0°C (75°F) [RH = 74%]
Pressure (altimeter): 29.91 inches Hg (1013.0 mb)
Winds: from the E (100 degrees) at 14 MPH (12 knots; 6.2 m/s)
Visibility: 6 or more miles (10+ km)
Ceiling: at least 12,000 feet AGL
Clouds: scattered clouds at 2400 feet AGL
scattered clouds at 3200 feet AGL
Weather: no significant weather observed at this time

METAR text: YPCC 151100Z AUTO 09014KT 9999 // BKN024 BKN028 BKN037 29/24 Q1012
Conditions at: YPCC (COCOS ISL INTL A, AU) observed 1100 UTC 15 February 2019
Temperature: 29.0°C (84°F)
Dewpoint: 24.0°C (75°F) [RH = 74%]
Pressure (altimeter): 29.88 inches Hg (1012.0 mb)
Winds: from the E (90 degrees) at 16 MPH (14 knots; 7.2 m/s)
Visibility: 6 or more miles (10+ km)
Ceiling: 2400 feet AGL
Clouds: broken clouds at 2400 feet AGL
broken clouds at 2800 feet AGL
broken clouds at 3700 feet AGL
Weather: no significant weather observed at this time

METAR text: YPCC 151030Z AUTO 10010KT 9999 // SCT024 BKN029 29/24 Q1012
Conditions at: YPCC (COCOS ISL INTL A, AU) observed 1030 UTC 15 February 2019
Temperature: 29.0°C (84°F)
Dewpoint: 24.0°C (75°F) [RH = 74%]
Pressure (altimeter): 29.88 inches Hg (1012.0 mb)
Winds: from the E (100 degrees) at 12 MPH (10 knots; 5.1 m/s)
Visibility: 6 or more miles (10+ km)
Ceiling: 2900 feet AGL
Clouds: scattered clouds at 2400 feet AGL
broken clouds at 2900 feet AGL
Weather: no significant weather observed at this time

Forecast for: YPCC (COCOS ISL INTL A, AU)
Text: TAF YPCC 161652Z 1618/1718 12012KT 9999 -SHRA SCT025
Forecast period: 1800 UTC 16 February 2019 to 1800 UTC 17 February 2019
Forecast type: FROM: standard forecast or significant change
Winds: from the ESE (120 degrees) at 14 MPH (12 knots; 6.2 m/s)
Visibility: 6 or more miles 10+ km)
Ceiling: at least 12,000 feet AGL
Clouds: scattered clouds at 2500 feet AGL
Weather: -SHRA  (light rain showers)